createdAt,value
2018-10-21T00:01:14.194Z,12.27
2018-10-21T00:04:18.665Z,11.80
2018-10-21T00:07:23.045Z,13.57
2018-10-21T00:10:27.351Z,11.77
2018-10-21T00:13:31.905Z,13.37
2018-10-21T00:16:36.250Z,13.77
2018-10-21T00:19:40.520Z,12.10
2018-10-21T00:22:44.838Z,11.60
2018-10-21T00:25:49.187Z,12.13
2018-10-21T00:28:53.643Z,12.07
2018-10-21T00:31:58.009Z,12.77
2018-10-21T00:35:02.091Z,12.67
2018-10-21T00:38:06.487Z,13.10
2018-10-21T00:41:10.918Z,14.20
2018-10-21T00:44:15.276Z,13.77
2018-10-21T00:47:19.622Z,12.50
2018-10-21T00:50:23.779Z,13.77
2018-10-21T00:53:28.168Z,14.10
2018-10-21T00:56:32.417Z,13.80
2018-10-21T00:59:36.698Z,14.50
2018-10-21T01:02:41.086Z,12.13
2018-10-21T01:05:45.570Z,13.10
2018-10-21T01:08:49.730Z,12.57
2018-10-21T01:11:54.261Z,13.30
2018-10-21T01:14:58.623Z,17.50
2018-10-21T01:18:03.558Z,21.37
2018-10-21T01:21:07.877Z,19.20
2018-10-21T01:24:12.278Z,20.27
2018-10-21T01:27:16.668Z,22.03
2018-10-21T01:30:21.001Z,21.10
2018-10-21T01:33:25.290Z,20.60
2018-10-21T01:36:29.461Z,21.27
2018-10-21T01:39:44.336Z,24.17
2018-10-21T01:42:48.776Z,24.30
2018-10-21T01:45:53.232Z,22.90
2018-10-21T01:48:57.763Z,24.33
2018-10-21T01:52:02.336Z,23.87
2018-10-21T01:55:06.855Z,24.27
2018-10-21T01:58:12.022Z,24.07
2018-10-21T02:01:16.502Z,25.87
2018-10-21T02:04:20.958Z,23.10
2018-10-21T02:07:24.993Z,24.40
2018-10-21T02:10:29.178Z,23.80
2018-10-21T02:13:33.522Z,23.90
2018-10-21T02:16:37.941Z,22.97
2018-10-21T02:19:41.865Z,23.00
2018-10-21T02:22:46.286Z,23.07
2018-10-21T02:25:50.226Z,22.63
2018-10-21T02:28:54.368Z,20.33
2018-10-21T02:31:58.609Z,20.37
2018-10-21T02:35:02.765Z,19.40
2018-10-21T02:38:06.971Z,19.10
2018-10-21T02:41:57.172Z,20.00
2018-10-21T02:45:01.651Z,16.80
2018-10-21T02:48:05.977Z,18.30
2018-10-21T02:51:10.631Z,18.03
2018-10-21T02:54:14.887Z,16.90
2018-10-21T02:57:19.205Z,17.90
2018-10-21T03:00:23.524Z,16.73
2018-10-21T03:03:28.151Z,16.60
2018-10-21T03:06:33.134Z,15.65
2018-10-21T03:09:37.407Z,15.27
2018-10-21T03:12:41.734Z,15.40
2018-10-21T03:15:46.049Z,14.53
2018-10-21T03:18:50.406Z,13.23
2018-10-21T03:21:55.317Z,14.03
2018-10-21T03:24:59.522Z,13.70
2018-10-21T03:28:03.908Z,15.47
2018-10-21T03:31:08.347Z,15.27
2018-10-21T03:34:12.819Z,14.37
2018-10-21T03:37:17.194Z,13.50
2018-10-21T03:40:21.513Z,13.57
2018-10-21T03:43:25.878Z,13.57
2018-10-21T03:46:30.347Z,11.67
2018-10-21T03:49:34.727Z,13.80
2018-10-21T03:52:39.041Z,14.17
2018-10-21T03:55:43.822Z,13.53
2018-10-21T03:58:48.164Z,13.27
2018-10-21T04:01:52.387Z,13.53
2018-10-21T04:04:56.741Z,15.00
2018-10-21T04:08:01.035Z,14.77
2018-10-21T04:11:05.415Z,12.63
2018-10-21T04:14:09.862Z,12.50
2018-10-21T04:17:14.122Z,13.70
2018-10-21T04:20:18.347Z,11.77
2018-10-21T04:23:22.756Z,12.30
2018-10-21T04:26:27.106Z,13.37
2018-10-21T04:29:31.830Z,13.43
2018-10-21T04:32:38.311Z,13.23
2018-10-21T04:35:42.697Z,14.63
2018-10-21T04:40:05.374Z,12.50
2018-10-21T04:43:09.603Z,10.00
2018-10-21T04:46:14.003Z,10.70
2018-10-21T04:49:18.426Z,12.17
2018-10-21T04:52:23.025Z,12.60
2018-10-21T04:55:27.214Z,11.40
2018-10-21T04:58:31.474Z,11.93
2018-10-21T05:01:35.742Z,10.70
2018-10-21T05:04:40.044Z,11.17
2018-10-21T05:07:44.655Z,9.83
2018-10-21T05:10:48.923Z,9.90
2018-10-21T05:13:53.200Z,10.73
2018-10-21T05:16:57.556Z,9.00
2018-10-21T05:20:01.877Z,9.20
2018-10-21T05:23:06.193Z,8.40
2018-10-21T05:26:10.529Z,8.20
2018-10-21T05:29:14.844Z,7.73
2018-10-21T05:32:19.173Z,7.63
2018-10-21T05:35:23.537Z,8.70
2018-10-21T05:38:27.882Z,7.80
2018-10-21T05:41:32.247Z,9.17
2018-10-21T05:44:36.518Z,7.40
2018-10-21T05:47:41.265Z,8.33
2018-10-21T05:50:45.712Z,8.50
2018-10-21T05:53:50.089Z,8.40
2018-10-21T05:56:54.355Z,7.87
2018-10-21T05:59:58.718Z,7.57
2018-10-21T06:03:02.946Z,8.60
2018-10-21T06:06:07.230Z,7.70
2018-10-21T06:09:12.714Z,7.87
2018-10-21T06:12:17.007Z,6.73
2018-10-21T06:15:21.326Z,6.70
2018-10-21T06:18:27.646Z,5.90
2018-10-21T06:21:32.481Z,6.10
2018-10-21T06:24:36.675Z,7.03
2018-10-21T06:27:41.317Z,6.27
2018-10-21T06:30:45.202Z,5.23
2018-10-21T06:33:49.392Z,5.83
2018-10-21T06:36:53.876Z,6.23
2018-10-21T06:39:57.616Z,6.43
2018-10-21T06:43:01.940Z,5.60
2018-10-21T06:46:06.350Z,6.10
2018-10-21T06:49:10.702Z,5.10
2018-10-21T06:52:15.058Z,5.23
2018-10-21T06:55:19.184Z,5.97
2018-10-21T06:58:23.792Z,5.30
2018-10-21T07:01:28.575Z,4.83
2018-10-21T07:04:32.861Z,4.73
2018-10-21T07:07:37.253Z,3.90
2018-10-21T07:10:41.401Z,5.20
2018-10-21T07:13:45.569Z,3.97
2018-10-21T07:16:49.876Z,4.13
2018-10-21T07:19:54.380Z,4.23
2018-10-21T07:22:58.699Z,5.60
2018-10-21T07:26:03.007Z,7.50
2018-10-21T07:29:07.371Z,7.50
2018-10-21T07:32:11.757Z,7.60
2018-10-21T07:35:16.187Z,8.90
2018-10-21T07:38:26.872Z,9.83
2018-10-21T07:41:31.006Z,9.93
2018-10-21T07:44:35.369Z,9.90
2018-10-21T07:47:39.670Z,10.03
2018-10-21T07:50:44.135Z,9.47
2018-10-21T07:53:48.436Z,8.37
2018-10-21T07:56:53.697Z,9.00
2018-10-21T07:59:57.985Z,8.87
2018-10-21T08:03:02.370Z,10.00
2018-10-21T08:06:27.443Z,9.17
2018-10-21T08:09:32.209Z,9.00
2018-10-21T08:12:36.554Z,9.60
2018-10-21T08:15:41.593Z,9.70
2018-10-21T08:18:45.961Z,7.67
2018-10-21T08:21:50.349Z,8.50
2018-10-21T08:24:55.200Z,7.83
2018-10-21T08:27:59.646Z,7.07
2018-10-21T08:31:04.072Z,4.27
2018-10-21T08:34:08.393Z,4.10
2018-10-21T08:37:12.732Z,3.60
2018-10-21T08:40:16.851Z,2.63
2018-10-21T08:43:21.177Z,1.80
2018-10-21T08:46:25.694Z,1.70
2018-10-21T08:49:30.098Z,4.60
2018-10-21T08:52:34.522Z,6.50
2018-10-21T08:55:39.137Z,7.00
2018-10-21T08:58:43.477Z,7.60
2018-10-21T09:01:47.897Z,5.57
2018-10-21T09:04:52.304Z,5.87
2018-10-21T09:07:56.599Z,5.70
2018-10-21T09:11:00.933Z,5.10
2018-10-21T09:14:05.449Z,6.23
2018-10-21T09:17:09.578Z,5.30
2018-10-21T09:20:16.077Z,5.60
2018-10-21T09:23:20.269Z,4.77
2018-10-21T09:26:24.441Z,3.50
2018-10-21T09:29:28.746Z,2.90
2018-10-21T09:32:33.184Z,2.07
2018-10-21T09:35:37.536Z,2.63
2018-10-21T09:38:41.689Z,1.50
2018-10-21T09:41:46.173Z,1.80
2018-10-21T09:44:50.496Z,1.93
2018-10-21T09:47:54.807Z,1.70
2018-10-21T09:50:58.965Z,1.27
2018-10-21T09:54:03.288Z,1.40
2018-10-21T09:57:07.729Z,1.87
2018-10-21T10:00:12.184Z,1.30
2018-10-21T10:03:16.815Z,1.37
2018-10-21T10:06:21.155Z,0.90
2018-10-21T10:09:25.520Z,1.63
2018-10-21T10:12:29.783Z,1.77
2018-10-21T10:15:34.568Z,2.22
2018-10-21T10:18:38.917Z,1.57
2018-10-21T10:21:43.544Z,1.93
2018-10-21T10:24:47.941Z,1.97
2018-10-21T10:27:52.255Z,1.30
2018-10-21T10:30:56.852Z,1.30
2018-10-21T10:34:01.290Z,1.13
2018-10-21T10:37:05.605Z,1.20
2018-10-21T10:40:11.161Z,1.10
2018-10-21T10:43:15.521Z,0.70
2018-10-21T10:46:19.783Z,1.30
2018-10-21T10:49:24.180Z,1.30
2018-10-21T10:52:28.682Z,1.23
2018-10-21T10:55:38.160Z,1.30
2018-10-21T10:58:42.612Z,0.93
2018-10-21T11:01:47.019Z,1.00
2018-10-21T11:04:51.265Z,0.80
2018-10-21T11:07:55.811Z,0.90
2018-10-21T11:11:00.167Z,0.80
2018-10-21T11:14:04.751Z,1.03
2018-10-21T11:17:09.039Z,0.40
2018-10-21T11:20:13.569Z,0.57
2018-10-21T11:23:18.064Z,0.60
2018-10-21T11:26:22.380Z,0.60
2018-10-21T11:29:26.656Z,0.60
2018-10-21T11:32:30.855Z,0.90
2018-10-21T11:35:35.309Z,0.73
2018-10-21T11:38:39.645Z,0.67
2018-10-21T11:41:43.953Z,0.80
2018-10-21T11:44:49.309Z,0.70
2018-10-21T11:47:53.634Z,0.93
2018-10-21T11:50:57.594Z,0.60
2018-10-21T11:54:01.528Z,0.70
2018-10-21T11:57:06.223Z,0.77
2018-10-21T12:00:10.597Z,0.63
2018-10-21T12:03:14.545Z,0.60
2018-10-21T12:06:18.944Z,0.70
2018-10-21T12:09:23.238Z,0.70
2018-10-21T12:12:27.438Z,0.70
2018-10-21T12:15:31.729Z,1.00
2018-10-21T12:18:35.646Z,0.60
2018-10-21T12:21:39.555Z,0.67
2018-10-21T12:24:43.602Z,0.47
2018-10-21T12:27:47.820Z,0.70
2018-10-21T12:30:52.023Z,0.53
2018-10-21T12:33:56.441Z,0.50
2018-10-21T12:37:00.726Z,0.50
2018-10-21T12:40:06.198Z,0.63
2018-10-21T12:43:10.343Z,0.73
2018-10-21T12:46:14.564Z,0.67
2018-10-21T12:49:18.847Z,1.20
2018-10-21T12:52:23.130Z,0.70
2018-10-21T12:55:28.124Z,0.80
2018-10-21T12:58:32.522Z,0.70
2018-10-21T13:01:36.888Z,0.40
2018-10-21T13:04:41.259Z,0.70
2018-10-21T13:07:45.686Z,0.50
2018-10-21T13:10:49.937Z,0.63
2018-10-21T13:13:54.248Z,0.70
2018-10-21T13:16:58.781Z,0.57
2018-10-21T13:20:03.218Z,0.77
2018-10-21T13:23:07.535Z,0.57
2018-10-21T13:26:11.807Z,0.83
2018-10-21T13:29:16.273Z,0.70
2018-10-21T13:32:20.581Z,0.60
2018-10-21T13:35:24.926Z,0.60
2018-10-21T13:38:29.404Z,0.70
2018-10-21T13:41:34.170Z,0.63
2018-10-21T13:44:38.590Z,0.80
2018-10-21T13:47:42.885Z,0.60
2018-10-21T13:50:47.081Z,1.00
2018-10-21T13:53:51.460Z,0.77
2018-10-21T13:56:55.875Z,0.80
2018-10-21T14:00:00.169Z,1.03
2018-10-21T14:03:04.622Z,1.17
2018-10-21T14:06:09.070Z,0.90
2018-10-21T14:09:14.288Z,1.00
2018-10-21T14:12:18.611Z,0.80
2018-10-21T14:15:22.933Z,1.00
2018-10-21T14:18:27.361Z,0.80
2018-10-21T14:21:31.912Z,0.87
2018-10-21T14:24:36.657Z,1.10
2018-10-21T14:27:41.217Z,1.93
2018-10-21T14:30:45.508Z,1.60
2018-10-21T14:33:49.818Z,1.10
2018-10-21T14:36:53.883Z,1.47
2018-10-21T14:39:58.073Z,1.20
2018-10-21T14:43:02.461Z,1.43
2018-10-21T14:46:07.045Z,1.30
2018-10-21T14:49:11.410Z,1.80
2018-10-21T14:52:15.746Z,1.33
2018-10-21T14:55:20.242Z,1.20
2018-10-21T14:58:24.598Z,1.50
2018-10-21T15:01:29.069Z,1.23
2018-10-21T15:04:33.552Z,1.40
2018-10-21T15:07:37.962Z,1.20
2018-10-21T15:10:42.107Z,1.50
2018-10-21T15:13:46.605Z,1.70
2018-10-21T15:16:50.973Z,1.70
2018-10-21T15:19:55.338Z,1.70
2018-10-21T15:22:59.767Z,1.70
2018-10-21T15:26:04.416Z,1.83
2018-10-21T15:29:08.737Z,1.70
2018-10-21T15:32:13.200Z,1.73
2018-10-21T15:35:17.482Z,2.07
2018-10-21T15:38:21.686Z,2.23
2018-10-21T15:41:26.110Z,1.50
2018-10-21T15:44:30.667Z,1.70
2018-10-21T15:47:35.001Z,1.63
2018-10-21T15:50:39.315Z,1.90
2018-10-21T15:53:43.498Z,1.83
2018-10-21T15:56:47.950Z,1.93
2018-10-21T15:59:52.836Z,2.07
2018-10-21T16:02:56.968Z,2.73
2018-10-21T16:06:01.302Z,2.40
2018-10-21T16:09:08.366Z,2.60
2018-10-21T16:12:12.712Z,2.00
2018-10-21T16:15:17.267Z,1.90
2018-10-21T16:18:21.666Z,2.57
2018-10-21T16:21:25.990Z,2.47
2018-10-21T16:24:30.248Z,2.47
2018-10-21T16:27:34.477Z,2.30
2018-10-21T16:30:38.901Z,3.20
2018-10-21T16:33:43.249Z,2.80
2018-10-21T16:36:47.572Z,2.47
2018-10-21T16:39:51.826Z,2.87
2018-10-21T16:42:56.220Z,2.60
2018-10-21T16:46:00.507Z,2.90
2018-10-21T16:49:04.885Z,2.83
2018-10-21T16:52:09.182Z,3.13
2018-10-21T16:55:14.059Z,3.53
2018-10-21T16:58:18.358Z,5.40
2018-10-21T17:01:22.827Z,5.10
2018-10-21T17:04:27.109Z,4.67
2018-10-21T17:07:31.399Z,4.63
2018-10-21T17:10:36.052Z,4.03
2018-10-21T17:13:39.977Z,3.90
2018-10-21T17:16:44.265Z,4.10
2018-10-21T17:19:48.589Z,4.57
2018-10-21T17:22:52.498Z,4.67
2018-10-21T17:25:56.866Z,4.53
2018-10-21T17:29:01.166Z,8.70
2018-10-21T17:32:05.374Z,8.87
2018-10-21T17:35:10.265Z,7.50
2018-10-21T17:38:14.723Z,12.37
2018-10-21T17:41:19.795Z,10.03
2018-10-21T17:44:24.174Z,9.40
2018-10-21T17:47:28.445Z,9.67
2018-10-21T17:50:32.787Z,9.17
2018-10-21T17:53:36.951Z,8.07
2018-10-21T17:56:46.556Z,9.07
2018-10-21T17:59:50.995Z,9.60
2018-10-21T18:02:55.198Z,8.70
2018-10-21T18:05:59.414Z,7.27
2018-10-21T18:09:03.929Z,8.03
2018-10-21T18:12:08.235Z,8.50
2018-10-21T18:15:12.928Z,8.63
2018-10-21T18:18:17.230Z,7.83
2018-10-21T18:21:21.597Z,9.60
2018-10-21T18:24:25.858Z,8.57
2018-10-21T18:27:29.950Z,9.70
2018-10-21T18:30:34.405Z,9.50
2018-10-21T18:33:39.408Z,8.63
2018-10-21T18:36:43.930Z,8.80
2018-10-21T18:39:48.134Z,9.57
2018-10-21T18:42:52.796Z,9.30
2018-10-21T18:45:57.201Z,7.63
2018-10-21T18:49:01.740Z,7.10
2018-10-21T18:52:06.174Z,6.87
2018-10-21T18:55:11.229Z,7.57
2018-10-21T18:58:15.593Z,8.13
2018-10-21T19:01:19.856Z,7.20
2018-10-21T19:04:24.355Z,6.97
2018-10-21T19:07:28.748Z,7.03
2018-10-21T19:10:33.337Z,6.83
2018-10-21T19:13:37.718Z,8.10
2018-10-21T19:16:42.139Z,7.10
2018-10-21T19:19:46.586Z,7.20
2018-10-21T19:22:50.984Z,7.20
2018-10-21T19:25:55.575Z,6.97
2018-10-21T19:28:59.987Z,6.83
2018-10-21T19:32:04.578Z,8.33
2018-10-21T19:35:10.177Z,7.20
2018-10-21T19:38:14.398Z,7.77
2018-10-21T19:41:18.743Z,8.07
2018-10-21T19:44:23.204Z,7.60
2018-10-21T19:47:27.432Z,7.97
2018-10-21T19:50:31.799Z,7.27
2018-10-21T19:53:36.199Z,7.37
2018-10-21T19:56:40.711Z,7.87
2018-10-21T19:59:45.162Z,8.17
2018-10-21T20:02:49.541Z,8.20
2018-10-21T20:05:53.506Z,9.50
2018-10-21T20:08:57.963Z,12.70
2018-10-21T20:12:02.272Z,10.70
2018-10-21T20:15:07.425Z,9.00
2018-10-21T20:18:11.830Z,8.30
2018-10-21T20:21:16.257Z,9.23
2018-10-21T20:24:21.534Z,8.23
2018-10-21T20:27:25.693Z,6.40
2018-10-21T20:30:30.059Z,6.37
2018-10-21T20:33:33.980Z,6.43
2018-10-21T20:36:38.975Z,6.50
2018-10-21T20:39:43.232Z,7.00
2018-10-21T20:42:47.536Z,6.97
2018-10-21T20:45:51.446Z,7.40
2018-10-21T20:48:55.924Z,6.90
2018-10-21T20:52:00.224Z,6.30
2018-10-21T20:55:04.721Z,7.50
2018-10-21T20:58:09.126Z,7.77
2018-10-21T21:01:13.486Z,7.30
2018-10-21T21:04:18.111Z,7.00
2018-10-21T21:07:22.351Z,8.30
2018-10-21T21:10:26.711Z,6.60
2018-10-21T21:13:31.078Z,7.53
2018-10-21T21:16:35.321Z,6.93
2018-10-21T21:19:39.670Z,7.30
2018-10-21T21:22:44.521Z,7.87
2018-10-21T21:25:48.925Z,8.13
2018-10-21T21:28:54.207Z,7.00
2018-10-21T21:31:58.402Z,6.87
2018-10-21T21:35:02.798Z,7.80
2018-10-21T21:38:07.051Z,8.00
2018-10-21T21:41:12.252Z,6.60
2018-10-21T21:44:16.575Z,7.70
2018-10-21T21:47:20.853Z,7.50
2018-10-21T21:50:25.170Z,7.87
2018-10-21T21:53:29.514Z,6.93
2018-10-21T21:56:33.575Z,7.23
2018-10-21T21:59:37.881Z,8.00
2018-10-21T22:02:42.105Z,7.90
2018-10-21T22:05:46.493Z,7.60
2018-10-21T22:08:50.928Z,7.50
2018-10-21T22:11:55.399Z,6.77
2018-10-21T22:14:59.680Z,6.63
2018-10-21T22:18:04.069Z,6.83
2018-10-21T22:21:08.394Z,7.00
2018-10-21T22:24:12.717Z,7.67
2018-10-21T22:27:16.902Z,7.83
2018-10-21T22:30:27.908Z,7.30
2018-10-21T22:33:31.882Z,7.30
2018-10-21T22:36:36.429Z,8.00
2018-10-21T22:39:40.833Z,8.00
2018-10-21T22:42:44.825Z,7.57
2018-10-21T22:45:48.987Z,7.20
2018-10-21T22:48:53.486Z,7.10
2018-10-21T22:51:57.961Z,7.30
2018-10-21T22:55:02.165Z,7.43
2018-10-21T22:58:06.610Z,8.80
2018-10-21T23:01:10.847Z,14.53
2018-10-21T23:04:15.211Z,13.90
2018-10-21T23:07:19.579Z,13.03
2018-10-21T23:10:23.775Z,8.10
2018-10-21T23:13:28.135Z,11.13
2018-10-21T23:16:32.415Z,8.53
2018-10-21T23:19:45.717Z,9.10
2018-10-21T23:22:49.980Z,7.47
2018-10-21T23:25:54.352Z,8.03
2018-10-21T23:28:58.642Z,6.20
2018-10-21T23:32:03.160Z,6.70
2018-10-21T23:35:07.699Z,6.87
2018-10-21T23:38:12.051Z,6.47
2018-10-21T23:41:16.238Z,6.77
2018-10-21T23:44:20.279Z,6.50
2018-10-21T23:47:24.566Z,6.27
2018-10-21T23:50:28.922Z,6.60
2018-10-21T23:53:33.202Z,6.90
2018-10-21T23:56:37.442Z,6.97
2018-10-21T23:59:41.940Z,7.90
